Whitby, United Kingdom
Current Conditions -  °F | °C
As of 1:20 PM on Thursday 27 Nov 2014 (Local Time) from EGNV Reporting Station
Haze Haze  
Wind Chill: 46°   Ceiling: 1000
Heat Index: 46°   Visibility: 1.8mi
Dew Point: 46°   Wind: 0mph
Humidity: 100%   Direction: NA
Pressure: 29.59"   Gusts: NA
Location:  54.48°N, 0.64°W
Report Text: EGNV 271320Z 00000KT 3000 BR FEW003 SCT006 BKN010 08/08 Q1002
Loading
Personal Weather Stations






























Interactive Weather Map New forecast layout! Learn more

10-Day Weather Forecast

Advertisements
Track Severe Weather on mobile